LROP - BUCURESTI / HENRI COANDA

Compiled: 11:38:25 on 21/04/2018

Latest METAR/SPECI Reports

METAR LROP 211130Z 26013KT 230V290 CAVOK 22/07 Q1020 NOSIG=

Previous reports

METAR LROP 211100Z 27012KT CAVOK 21/07 Q1020 NOSIG=
METAR LROP 211030Z 26013KT CAVOK 21/08 Q1020 NOSIG=
METAR LROP 211000Z 26013KT CAVOK 21/07 Q1021 NOSIG=
METAR LROP 210930Z 27012KT 250V310 CAVOK 20/07 Q1021 NOSIG=

Latest TAF report

TAF LROP 211100Z 2112/2212 25010KT CAVOK BECMG 2200/2202 VRB04KT=

Valid WARNINGS

No valid warnings for LROP